Time;durP1;ratioP1;P1;durP2;ratioP2;P2;SDS_P1;SDS_P2;PMS_P1;PMS_P2;Temp;Humidity;BMP_temperature;BMP_pressure;BME280_temperature;BME280_humidity;BME280_pressure;Samples;Min_cycle;Max_cycle;Signal;HPM_P1;HPM_P2
2022/11/26 00:00:41;;;;;;;8.75;2.53;;;5.30;99.90;;;;;;5049108;28;20106;-65
2022/11/26 00:03:09;;;;;;;4.45;2.28;;;5.30;99.90;;;;;;5053763;28;20507;-65
2022/11/26 00:05:35;;;;;;;3.88;2.05;;;5.40;99.90;;;;;;5053966;28;20041;-65
2022/11/26 00:08:03;;;;;;;6.40;2.33;;;5.50;99.90;;;;;;5036133;28;20040;-65
2022/11/26 00:10:33;;;;;;;7.18;2.45;;;5.50;99.90;;;;;;5053518;28;20041;-65
2022/11/26 00:12:59;;;;;;;6.05;2.00;;;5.50;99.90;;;;;;5053849;28;20531;-65
2022/11/26 00:15:28;;;;;;;9.13;3.22;;;5.50;99.90;;;;;;5053826;28;20136;-65
2022/11/26 00:17:54;;;;;;;3.65;2.13;;;5.50;99.90;;;;;;5053291;28;20037;-65
2022/11/26 00:20:29;;;;;;;6.45;2.65;;;5.70;99.90;;;;;;5053762;28;20483;-65
2022/11/26 00:23:00;;;;;;;6.53;2.40;;;5.50;99.90;;;;;;5053716;28;20033;-65
2022/11/26 00:25:31;;;;;;;12.67;2.40;;;5.50;99.90;;;;;;5053755;28;20419;-64
2022/11/26 00:27:58;;;;;;;7.68;2.85;;;5.90;99.90;;;;;;5053617;28;20041;-65
2022/11/26 00:30:26;;;;;;;5.13;2.65;;;5.80;99.90;;;;;;5052843;28;20041;-65
2022/11/26 00:32:53;;;;;;;4.40;2.10;;;5.40;99.90;;;;;;5053600;28;20044;-65
2022/11/26 00:35:19;;;;;;;5.90;2.65;;;5.40;99.90;;;;;;5035729;28;20083;-64
2022/11/26 00:37:52;;;;;;;4.97;2.38;;;5.40;99.90;;;;;;5053454;28;20033;-65
2022/11/26 00:40:30;;;;;;;10.57;2.63;;;5.40;99.90;;;;;;5053450;28;20488;-65
2022/11/26 00:42:56;;;;;;;16.45;3.22;;;5.30;99.90;;;;;;5053448;28;20471;-65
2022/11/26 00:45:31;;;;;;;6.15;2.95;;;5.30;99.90;;;;;;5018841;28;20052;-65
2022/11/26 00:47:57;;;;;;;6.40;3.05;;;5.40;99.90;;;;;;5053380;28;20128;-65
2022/11/26 00:50:26;;;;;;;9.00;3.15;;;5.20;99.90;;;;;;5035282;28;20548;-65
2022/11/26 00:52:55;;;;;;;4.70;2.28;;;5.20;99.90;;;;;;5053354;28;20517;-65
2022/11/26 00:55:39;;;;;;;7.55;2.33;;;5.30;99.90;;;;;;5053276;28;20037;-65
2022/11/26 00:58:06;;;;;;;5.72;2.60;;;5.30;99.90;;;;;;5053235;28;20439;-65
2022/11/26 01:00:33;;;;;;;8.73;2.40;;;5.30;99.90;;;;;;5052975;28;20529;-65
2022/11/26 01:03:00;;;;;;;5.70;2.97;;;5.20;99.90;;;;;;5053268;28;20064;-65
2022/11/26 01:05:32;;;;;;;5.28;2.53;;;5.20;99.90;;;;;;5053259;28;20526;-65
2022/11/26 01:08:18;;;;;;;7.53;2.67;;;5.20;99.90;;;;;;5035348;28;20095;-65
2022/11/26 01:10:44;;;;;;;9.02;3.05;;;5.10;99.90;;;;;;5053082;28;20037;-65
2022/11/26 01:13:10;;;;;;;4.30;2.25;;;5.20;99.90;;;;;;5052836;28;20403;-65
2022/11/26 01:15:36;;;;;;;7.30;2.78;;;5.10;99.90;;;;;;5053117;28;20112;-65
2022/11/26 01:18:12;;;;;;;11.77;3.03;;;5.10;99.90;;;;;;5035157;28;20140;-65
2022/11/26 01:20:38;;;;;;;9.02;3.47;;;5.10;99.90;;;;;;5053099;28;20040;-65
2022/11/26 01:23:04;;;;;;;7.10;2.45;;;5.10;99.90;;;;;;5053045;28;20033;-64
2022/11/26 01:25:30;;;;;;;8.73;3.00;;;5.00;99.90;;;;;;5034870;28;20124;-65
2022/11/26 01:27:55;;;;;;;9.70;2.55;;;5.00;99.90;;;;;;5053007;28;20506;-66
2022/11/26 01:30:26;;;;;;;6.97;2.53;;;5.00;99.90;;;;;;5034837;28;20044;-65
2022/11/26 01:32:52;;;;;;;5.43;3.17;;;5.00;99.90;;;;;;5052996;28;20457;-64
2022/11/26 01:35:19;;;;;;;10.52;3.17;;;5.00;99.90;;;;;;5052923;28;20041;-65
2022/11/26 01:37:46;;;;;;;5.45;3.28;;;5.00;99.90;;;;;;5034837;28;20047;-65
2022/11/26 01:40:50;;;;;;;8.10;2.63;;;5.00;99.90;;;;;;5034742;28;20131;-65
2022/11/26 01:43:21;;;;;;;10.50;2.55;;;5.00;99.90;;;;;;5055842;28;20049;-65
2022/11/26 01:45:47;;;;;;;5.25;2.55;;;5.00;99.90;;;;;;5038474;28;20044;-65
2022/11/26 01:48:26;;;;;;;7.60;2.83;;;5.40;99.90;;;;;;5056548;28;20128;-65
2022/11/26 01:51:00;;;;;;;12.55;2.95;;;4.90;99.90;;;;;;5056469;28;20364;-65
2022/11/26 01:53:45;;;;;;;4.82;2.13;;;4.90;99.90;;;;;;5056154;28;20052;-65
2022/11/26 01:56:35;;;;;;;7.45;2.42;;;4.90;99.90;;;;;;5056446;28;20480;-65
2022/11/26 01:59:16;;;;;;;6.53;3.08;;;4.90;99.90;;;;;;5056439;28;20028;-65
2022/11/26 02:01:42;;;;;;;3.28;2.13;;;4.90;99.90;;;;;;5056379;28;20045;-65
2022/11/26 02:04:26;;;;;;;7.32;3.03;;;4.90;99.90;;;;;;5038508;28;20091;-65
2022/11/26 02:06:53;;;;;;;4.78;2.65;;;4.90;99.90;;;;;;5055920;28;20087;-64
2022/11/26 02:09:19;;;;;;;8.95;2.78;;;4.90;99.90;;;;;;5055881;28;20071;-65
2022/11/26 02:11:46;;;;;;;6.60;3.00;;;4.90;99.90;;;;;;5055843;28;20076;-65
2022/11/26 02:14:14;;;;;;;7.22;2.53;;;4.90;99.90;;;;;;5055788;28;20561;-65
2022/11/26 02:16:55;;;;;;;8.18;2.92;;;4.90;99.90;;;;;;5056157;28;20043;-65
2022/11/26 02:19:33;;;;;;;5.72;3.30;;;4.90;99.90;;;;;;5056011;28;20053;-65
2022/11/26 02:22:14;;;;;;;4.53;3.00;;;4.90;99.90;;;;;;5038101;28;20506;-65
2022/11/26 02:25:13;;;;;;;4.72;3.35;;;4.80;99.90;;;;;;5055614;28;20124;-65
2022/11/26 02:27:47;;;;;;;4.07;2.78;;;4.80;99.90;;;;;;5055865;28;20033;-64
2022/11/26 02:30:15;;;;;;;5.22;2.45;;;4.80;99.90;;;;;;5055395;28;20045;-64
2022/11/26 02:32:53;;;;;;;4.32;2.45;;;4.90;99.90;;;;;;5037673;28;20037;-65
2022/11/26 02:35:51;;;;;;;7.20;3.08;;;5.00;99.90;;;;;;5055765;28;20037;-65
2022/11/26 02:38:22;;;;;;;5.03;2.80;;;4.80;99.90;;;;;;5055307;28;20170;-65
2022/11/26 02:40:49;;;;;;;6.97;2.80;;;4.90;99.90;;;;;;5055572;28;20503;-65
2022/11/26 02:43:16;;;;;;;4.95;3.53;;;4.70;99.90;;;;;;5055169;28;20041;-65
2022/11/26 02:45:47;;;;;;;7.32;4.15;;;4.80;99.90;;;;;;5037699;28;20124;-64
2022/11/26 02:48:20;;;;;;;;;;;4.80;99.90;;;;;;5055860;28;20044;-64
2022/11/26 02:50:54;;;;;;;10.88;3.28;;;4.80;99.90;;;;;;5055074;28;19921;-64
2022/11/26 02:53:22;;;;;;;10.38;3.35;;;4.70;99.90;;;;;;5055061;28;20480;-65
2022/11/26 02:55:53;;;;;;;6.05;3.13;;;4.70;99.90;;;;;;5055369;28;20143;-65
2022/11/26 02:58:19;;;;;;;6.22;3.08;;;4.70;99.90;;;;;;5055305;28;20372;-65
2022/11/26 03:00:48;;;;;;;8.60;3.83;;;5.30;99.90;;;;;;5055102;28;20060;-67
2022/11/26 03:03:24;;;;;;;5.82;3.15;;;4.70;99.90;;;;;;5055158;28;20115;-67
2022/11/26 03:06:01;;;;;;;5.63;3.10;;;4.60;99.90;;;;;;5055178;28;20049;-66
2022/11/26 03:08:28;;;;;;;5.43;3.10;;;4.80;99.90;;;;;;5054726;28;20115;-67
2022/11/26 03:10:53;;;;;;;5.95;3.30;;;4.60;99.90;;;;;;5054789;28;20500;-67
2022/11/26 03:13:19;;;;;;;5.28;3.05;;;4.60;99.90;;;;;;5054983;28;20062;-67
2022/11/26 03:15:45;;;;;;;8.18;3.58;;;4.60;99.90;;;;;;5054692;28;20045;-67
2022/11/26 03:18:11;;;;;;;10.90;3.17;;;4.60;99.90;;;;;;5054645;28;20041;-67
2022/11/26 03:20:36;;;;;;;6.03;3.03;;;4.60;99.90;;;;;;5054676;28;20076;-67
2022/11/26 03:23:02;;;;;;;11.35;2.97;;;4.60;99.90;;;;;;5054548;28;20106;-67
2022/11/26 03:25:28;;;;;;;11.45;4.15;;;4.60;99.90;;;;;;5036587;28;20041;-67
2022/11/26 03:27:54;;;;;;;10.23;3.50;;;4.60;99.90;;;;;;5054710;28;20040;-68
2022/11/26 03:30:19;;;;;;;6.53;3.25;;;4.60;99.90;;;;;;5054523;28;20045;-67
2022/11/26 03:32:45;;;;;;;6.72;3.38;;;4.50;99.90;;;;;;5036547;28;20036;-67
2022/11/26 03:35:11;;;;;;;6.97;4.03;;;4.60;99.90;;;;;;5036786;28;20530;-67
2022/11/26 03:37:36;;;;;;;7.22;3.17;;;4.50;99.90;;;;;;5036941;28;20419;-67
2022/11/26 03:40:02;;;;;;;7.05;3.33;;;5.30;99.90;;;;;;5036782;28;20086;-67
2022/11/26 03:42:28;;;;;;;4.70;2.70;;;4.50;99.90;;;;;;5054454;28;20029;-67
2022/11/26 03:44:54;;;;;;;4.90;2.92;;;4.60;99.90;;;;;;5054371;28;20043;-67
2022/11/26 03:47:20;;;;;;;7.95;3.25;;;4.50;99.90;;;;;;5053941;28;20041;-67
2022/11/26 03:49:45;;;;;;;7.63;3.17;;;4.60;99.90;;;;;;5054204;28;20068;-67
2022/11/26 03:52:11;;;;;;;5.35;3.17;;;5.30;99.90;;;;;;5036430;28;20048;-68
2022/11/26 03:54:37;;;;;;;5.43;2.97;;;4.60;99.90;;;;;;5054183;28;20380;-67
2022/11/26 03:57:03;;;;;;;7.28;4.10;;;4.80;99.90;;;;;;5054205;28;20041;-67
2022/11/26 03:59:28;;;;;;;7.43;3.00;;;4.60;99.90;;;;;;5053582;28;20033;-67
2022/11/26 04:01:55;;;;;;;9.45;3.00;;;4.60;99.90;;;;;;5054051;28;20040;-67
2022/11/26 04:04:21;;;;;;;11.18;2.88;;;4.60;99.90;;;;;;5053340;28;20502;-67
2022/11/26 04:06:46;;;;;;;8.70;3.08;;;4.60;99.90;;;;;;5054002;28;20090;-67
2022/11/26 04:09:12;;;;;;;5.65;3.65;;;4.60;99.90;;;;;;5053929;28;20048;-67
2022/11/26 04:11:37;;;;;;;7.93;3.95;;;4.60;99.90;;;;;;5053847;28;20128;-67
2022/11/26 04:14:03;;;;;;;7.97;3.50;;;4.60;99.90;;;;;;5053877;28;20369;-68
2022/11/26 04:16:29;;;;;;;9.38;3.28;;;4.60;99.90;;;;;;5053757;28;20373;-67
2022/11/26 04:18:54;;;;;;;4.05;2.53;;;4.60;99.90;;;;;;5053502;28;20480;-67
2022/11/26 04:21:20;;;;;;;7.85;3.40;;;4.60;99.90;;;;;;5053482;28;20041;-67
2022/11/26 04:23:46;;;;;;;8.30;3.17;;;4.60;99.90;;;;;;5053358;28;20045;-67
2022/11/26 04:26:11;;;;;;;9.43;3.45;;;4.70;99.90;;;;;;5053641;28;20083;-68
2022/11/26 04:28:37;;;;;;;8.43;2.53;;;4.70;99.90;;;;;;5053664;28;20041;-67
2022/11/26 04:31:03;;;;;;;6.78;3.35;;;4.70;99.90;;;;;;5053585;28;20080;-67
2022/11/26 04:33:28;;;;;;;5.15;3.03;;;4.70;99.90;;;;;;5053521;28;20033;-67
2022/11/26 04:35:54;;;;;;;5.47;2.78;;;5.10;99.90;;;;;;5035446;28;20041;-68
2022/11/26 04:38:20;;;;;;;6.47;3.42;;;4.70;99.90;;;;;;5053447;28;20044;-67
2022/11/26 04:40:47;;;;;;;8.75;3.45;;;4.90;99.90;;;;;;5053160;28;20052;-67
2022/11/26 04:43:12;;;;;;;5.85;2.90;;;4.90;99.90;;;;;;5053403;28;20041;-67
2022/11/26 04:45:38;;;;;;;7.47;3.45;;;4.60;99.90;;;;;;5035366;28;20404;-67
2022/11/26 04:48:04;;;;;;;8.05;3.45;;;5.00;99.90;;;;;;5053092;28;20395;-67
2022/11/26 04:50:30;;;;;;;7.95;3.88;;;4.70;99.90;;;;;;5035180;28;20044;-68
2022/11/26 04:52:56;;;;;;;13.82;3.67;;;4.70;99.90;;;;;;5035226;28;20059;-67
2022/11/26 04:55:21;;;;;;;6.53;4.35;;;4.60;99.90;;;;;;5052963;28;20434;-67
2022/11/26 04:57:47;;;;;;;9.77;3.83;;;4.70;99.90;;;;;;5053357;28;20048;-67
2022/11/26 05:00:15;;;;;;;5.80;3.22;;;4.60;99.90;;;;;;5052992;28;20049;-67
2022/11/26 05:02:41;;;;;;;7.85;3.95;;;4.60;99.90;;;;;;5053331;28;20091;-67
2022/11/26 05:05:07;;;;;;;15.63;3.85;;;4.60;99.90;;;;;;5053155;28;20077;-67
2022/11/26 05:07:33;;;;;;;8.05;3.25;;;4.60;99.90;;;;;;5053207;28;20116;-67
2022/11/26 05:09:59;;;;;;;11.48;4.60;;;4.50;99.90;;;;;;5053139;28;20400;-67
2022/11/26 05:12:25;;;;;;;10.52;3.90;;;4.50;99.90;;;;;;5035696;28;20037;-67
2022/11/26 05:14:50;;;;;;;9.55;4.25;;;4.60;99.90;;;;;;5052967;28;20087;-67
2022/11/26 05:17:16;;;;;;;11.68;3.65;;;4.60;99.90;;;;;;5056959;28;20037;-67
2022/11/26 05:19:42;;;;;;;8.50;3.92;;;4.60;99.90;;;;;;5056841;28;20044;-67
2022/11/26 05:22:07;;;;;;;9.30;4.50;;;4.60;99.90;;;;;;5039126;28;20111;-68
2022/11/26 05:24:33;;;;;;;13.20;4.28;;;4.50;99.90;;;;;;5056724;28;20064;-68
2022/11/26 05:26:58;;;;;;;5.93;3.60;;;4.60;99.90;;;;;;5057034;28;20098;-67
2022/11/26 05:29:24;;;;;;;10.45;3.92;;;5.00;99.90;;;;;;5038761;28;20053;-67
2022/11/26 05:31:51;;;;;;;6.85;3.72;;;5.10;99.90;;;;;;5056702;28;20064;-67
2022/11/26 05:34:17;;;;;;;12.50;4.57;;;4.50;99.90;;;;;;5056472;28;20073;-67
2022/11/26 05:36:43;;;;;;;10.57;3.85;;;4.50;99.90;;;;;;5039234;28;20033;-67
2022/11/26 05:39:08;;;;;;;6.13;3.90;;;5.00;99.90;;;;;;5056526;28;20029;-67
2022/11/26 05:41:34;;;;;;;9.10;4.28;;;4.60;99.90;;;;;;5056540;28;20049;-68
2022/11/26 05:44:00;;;;;;;9.50;4.93;;;4.50;99.90;;;;;;5056489;28;20095;-65
2022/11/26 05:46:27;;;;;;;7.10;4.38;;;4.50;99.90;;;;;;5056247;28;20056;-65
2022/11/26 05:48:52;;;;;;;8.23;3.65;;;4.50;99.90;;;;;;5038829;28;20048;-65
2022/11/26 05:51:18;;;;;;;5.95;4.22;;;4.50;99.90;;;;;;5056457;28;20045;-65
2022/11/26 05:53:44;;;;;;;6.68;3.58;;;4.50;99.90;;;;;;5055538;28;20480;-65
2022/11/26 05:56:09;;;;;;;6.80;4.32;;;4.50;99.90;;;;;;5056431;28;20446;-65
2022/11/26 05:58:36;;;;;;;8.13;3.95;;;4.50;99.90;;;;;;5056448;28;20451;-65
2022/11/26 06:01:08;;;;;;;11.02;4.80;;;4.50;99.90;;;;;;5055758;28;20135;-65
2022/11/26 06:03:35;;;;;;;11.43;4.40;;;4.50;99.90;;;;;;5056023;28;20096;-65
2022/11/26 06:06:02;;;;;;;5.82;4.13;;;4.70;99.90;;;;;;5056107;28;20049;-66
2022/11/26 06:08:27;;;;;;;8.88;4.72;;;4.60;99.90;;;;;;5056252;28;20041;-65
2022/11/26 06:10:53;;;;;;;7.20;4.40;;;4.60;99.90;;;;;;5055785;28;20037;-66
2022/11/26 06:13:19;;;;;;;10.82;5.63;;;4.60;99.90;;;;;;5056083;28;20044;-65
2022/11/26 06:15:45;;;;;;;27.02;5.68;;;4.60;99.90;;;;;;5055726;28;20033;-66
2022/11/26 06:18:10;;;;;;;11.55;4.18;;;4.50;99.90;;;;;;5055699;28;20087;-66
2022/11/26 06:20:37;;;;;;;10.43;5.43;;;5.10;99.90;;;;;;5038206;28;20037;-66
2022/11/26 06:23:03;;;;;;;5.97;4.13;;;4.50;99.90;;;;;;5055952;28;20049;-66
2022/11/26 06:25:29;;;;;;;7.25;4.10;;;4.90;99.90;;;;;;5055895;28;20036;-66
2022/11/26 06:27:55;;;;;;;12.40;4.10;;;4.50;99.90;;;;;;5037238;28;20045;-66
2022/11/26 06:30:21;;;;;;;8.82;5.05;;;5.30;99.90;;;;;;5055776;28;20049;-65
2022/11/26 06:32:47;;;;;;;10.88;5.15;;;4.50;99.90;;;;;;5055529;28;20116;-66
2022/11/26 06:35:13;;;;;;;10.25;5.75;;;4.50;99.90;;;;;;5055342;28;20073;-65
2022/11/26 06:37:39;;;;;;;7.32;4.40;;;4.50;99.90;;;;;;5055692;28;20080;-65
2022/11/26 06:40:06;;;;;;;11.27;4.68;;;5.00;99.90;;;;;;5055325;28;20041;-66
2022/11/26 06:42:31;;;;;;;11.05;4.72;;;4.60;99.90;;;;;;5037392;28;20049;-64
2022/11/26 06:44:57;;;;;;;9.00;4.75;;;4.50;99.90;;;;;;5055478;28;20032;-65
2022/11/26 06:47:23;;;;;;;7.57;4.70;;;4.50;99.90;;;;;;5055485;28;20048;-66
2022/11/26 06:49:49;;;;;;;14.40;5.32;;;4.50;99.90;;;;;;5055099;28;20503;-66
2022/11/26 06:52:17;;;;;;;7.53;4.90;;;4.50;99.90;;;;;;5055349;28;20048;-66
2022/11/26 06:54:43;;;;;;;7.47;4.78;;;4.50;99.90;;;;;;5055339;28;20044;-66
2022/11/26 06:57:09;;;;;;;10.05;5.07;;;4.50;99.90;;;;;;5054884;28;20037;-66
2022/11/26 06:59:34;;;;;;;7.07;4.57;;;4.50;99.90;;;;;;5037152;28;20120;-66
2022/11/26 07:02:00;;;;;;;7.40;4.68;;;4.50;99.90;;;;;;5033803;28;20041;-65
2022/11/26 07:04:26;;;;;;;8.68;5.40;;;4.50;99.90;;;;;;5034057;28;20056;-65
2022/11/26 07:06:52;;;;;;;10.50;5.25;;;4.50;99.90;;;;;;5035299;28;20041;-65
2022/11/26 07:09:17;;;;;;;7.88;5.00;;;5.00;99.90;;;;;;5033842;28;20060;-65
2022/11/26 07:11:43;;;;;;;10.07;4.47;;;4.50;99.90;;;;;;5035070;28;20041;-66
2022/11/26 07:14:09;;;;;;;7.50;4.25;;;4.50;99.90;;;;;;5035048;28;20432;-65
2022/11/26 07:16:35;;;;;;;10.20;5.05;;;4.50;99.90;;;;;;5035061;28;20636;-65
2022/11/26 07:19:01;;;;;;;7.72;4.43;;;4.50;99.90;;;;;;5034664;28;20088;-66
2022/11/26 07:21:27;;;;;;;8.85;4.80;;;4.50;99.90;;;;;;5034939;28;20045;-66
2022/11/26 07:23:54;;;;;;;9.63;5.45;;;4.50;99.90;;;;;;5016902;28;20049;-64
2022/11/26 07:26:21;;;;;;;9.55;5.30;;;4.50;99.90;;;;;;5034746;28;20124;-64
2022/11/26 07:28:47;;;;;;;6.15;3.72;;;4.60;99.90;;;;;;5034798;28;20400;-63
2022/11/26 07:31:16;;;;;;;7.07;4.78;;;4.50;99.90;;;;;;5016750;28;20052;-65
2022/11/26 07:33:41;;;;;;;9.93;5.05;;;4.50;99.90;;;;;;5034768;28;20041;-62
2022/11/26 07:36:12;;;;;;;8.10;4.68;;;4.50;99.90;;;;;;5016917;28;20052;-66
2022/11/26 07:38:38;;;;;;;11.02;4.78;;;4.50;99.90;;;;;;5033467;28;20073;-67
2022/11/26 07:41:06;;;;;;;12.48;5.93;;;4.90;99.90;;;;;;5034492;28;20143;-64
2022/11/26 07:43:37;;;;;;;10.15;4.95;;;4.60;99.90;;;;;;5034480;28;20045;-62
2022/11/26 07:46:08;;;;;;;9.07;5.15;;;4.80;99.90;;;;;;5034496;28;20044;-62
2022/11/26 07:48:34;;;;;;;6.32;3.88;;;4.60;99.90;;;;;;5034421;28;20048;-63
2022/11/26 07:51:01;;;;;;;5.35;3.45;;;5.10;99.90;;;;;;5034349;28;20077;-64
2022/11/26 07:53:27;;;;;;;11.40;4.55;;;4.70;99.90;;;;;;5034040;28;20041;-63
2022/11/26 07:55:53;;;;;;;9.50;4.72;;;4.70;99.90;;;;;;5033953;28;20037;-63
2022/11/26 07:58:19;;;;;;;10.25;5.20;;;4.70;99.90;;;;;;5034188;28;20037;-62
2022/11/26 08:00:44;;;;;;;9.07;4.75;;;4.80;99.90;;;;;;5023822;28;20060;-62
2022/11/26 08:03:10;;;;;;;12.18;4.40;;;4.80;99.90;;;;;;5053707;28;20462;-63
2022/11/26 08:05:40;;;;;;;6.78;3.72;;;5.10;99.90;;;;;;5054061;28;20049;-64
2022/11/26 08:08:06;;;;;;;6.40;4.45;;;4.90;99.90;;;;;;5053983;28;20124;-64
2022/11/26 08:10:32;;;;;;;6.93;4.28;;;5.00;99.90;;;;;;5053869;28;20128;-63
2022/11/26 08:12:57;;;;;;;8.32;5.03;;;5.30;99.90;;;;;;5053876;28;20044;-65
2022/11/26 08:15:23;;;;;;;7.07;4.32;;;5.10;99.90;;;;;;5053758;28;20037;-64
2022/11/26 08:17:52;;;;;;;8.70;5.00;;;5.20;99.90;;;;;;5053767;28;20426;-63
2022/11/26 08:20:18;;;;;;;12.52;5.57;;;5.20;99.90;;;;;;5035546;28;20190;-64
2022/11/26 08:22:44;;;;;;;9.00;4.57;;;5.30;99.90;;;;;;5053346;28;20124;-64
2022/11/26 08:25:09;;;;;;;18.70;5.90;;;5.30;99.90;;;;;;5053647;28;20423;-64
2022/11/26 08:27:35;;;;;;;9.07;4.63;;;5.30;99.90;;;;;;5035566;28;20037;-64
2022/11/26 08:30:01;;;;;;;11.90;4.68;;;5.40;99.90;;;;;;5035818;28;20048;-64
2022/11/26 08:32:27;;;;;;;9.50;4.20;;;5.50;99.90;;;;;;5053340;28;20047;-63
2022/11/26 08:34:53;;;;;;;9.57;5.05;;;5.50;99.90;;;;;;5053348;28;20119;-63
2022/11/26 08:37:19;;;;;;;7.32;4.45;;;5.60;99.90;;;;;;5035516;28;20047;-64
2022/11/26 08:39:44;;;;;;;10.68;4.65;;;5.60;99.90;;;;;;5053475;28;20041;-64
2022/11/26 08:42:10;;;;;;;9.50;5.07;;;5.60;99.90;;;;;;5053234;28;20364;-64
2022/11/26 08:44:36;;;;;;;9.20;4.50;;;5.70;99.90;;;;;;5053125;28;20090;-64
2022/11/26 08:47:02;;;;;;;16.13;4.97;;;5.70;99.90;;;;;;5035378;28;20051;-64
2022/11/26 08:49:27;;;;;;;7.22;4.20;;;5.80;99.90;;;;;;5053000;28;20099;-63
2022/11/26 08:51:56;;;;;;;4.78;3.55;;;5.90;99.90;;;;;;5052958;28;20048;-64
2022/11/26 08:54:23;;;;;;;7.38;4.28;;;5.90;99.90;;;;;;5052844;28;20045;-64
2022/11/26 08:56:48;;;;;;;7.85;3.95;;;6.10;99.90;;;;;;5053421;28;20041;-64
2022/11/26 08:59:16;;;;;;;11.85;3.97;;;6.10;99.90;;;;;;5035138;28;20052;-65
2022/11/26 09:01:41;;;;;;;13.00;4.70;;;6.60;99.90;;;;;;5052899;28;20102;-65
2022/11/26 09:04:07;;;;;;;8.57;4.28;;;6.10;99.90;;;;;;5053230;28;20049;-65
2022/11/26 09:06:37;;;;;;;9.40;3.42;;;6.20;99.90;;;;;;5052490;28;20045;-64
2022/11/26 09:09:13;;;;;;;7.70;3.88;;;6.20;99.90;;;;;;5052327;28;20076;-65
2022/11/26 09:11:54;;;;;;;15.82;5.65;;;6.20;99.90;;;;;;5051883;28;20052;-65
2022/11/26 09:14:23;;;;;;;5.85;3.75;;;6.30;99.90;;;;;;5052239;28;20480;-65
2022/11/26 09:16:50;;;;;;;12.15;4.10;;;6.30;99.90;;;;;;5052202;28;20041;-65
2022/11/26 09:19:16;;;;;;;12.30;4.15;;;6.30;99.90;;;;;;5052185;28;20595;-65
2022/11/26 09:21:43;;;;;;;8.07;4.43;;;6.60;99.90;;;;;;5052120;28;20040;-65
2022/11/26 09:24:09;;;;;;;9.48;4.93;;;6.40;99.90;;;;;;5052082;28;20052;-66
2022/11/26 09:26:35;;;;;;;5.75;3.63;;;6.50;99.90;;;;;;5051732;28;20064;-65
2022/11/26 09:29:02;;;;;;;10.70;4.32;;;6.40;99.90;;;;;;5052109;28;20052;-65
2022/11/26 09:31:28;;;;;;;10.05;3.97;;;6.50;99.90;;;;;;5051716;28;20087;-65
2022/11/26 09:33:55;;;;;;;9.95;4.53;;;6.50;99.90;;;;;;5051691;28;20132;-64
2022/11/26 09:36:21;;;;;;;9.95;4.00;;;6.60;99.90;;;;;;5051906;28;20078;-65
2022/11/26 09:38:47;;;;;;;7.13;4.15;;;6.60;99.90;;;;;;5033873;28;20041;-64
2022/11/26 09:41:19;;;;;;;10.98;4.57;;;6.70;99.90;;;;;;5051934;28;20041;-66
2022/11/26 09:44:21;;;;;;;6.97;4.43;;;6.70;99.90;;;;;;5051723;28;20037;-66
2022/11/26 09:46:58;;;;;;;12.48;6.00;;;6.70;99.90;;;;;;5032402;28;20053;-65
2022/11/26 09:49:27;;;;;;;8.88;5.43;;;6.80;99.90;;;;;;5051610;28;20049;-65
2022/11/26 09:51:56;;;;;;;15.02;5.25;;;6.80;99.90;;;;;;5051923;28;20060;-65
2022/11/26 09:54:25;;;;;;;13.35;5.90;;;6.80;99.90;;;;;;5051843;28;20037;-65
2022/11/26 09:57:17;;;;;;;9.60;5.90;;;6.80;99.90;;;;;;5051588;28;20091;-63
2022/11/26 09:59:45;;;;;;;11.63;5.35;;;6.80;99.90;;;;;;5051543;28;20041;-65
2022/11/26 10:02:12;;;;;;;12.48;6.03;;;6.80;99.90;;;;;;5052275;28;20068;-65
2022/11/26 10:04:39;;;;;;;12.02;5.60;;;6.90;99.90;;;;;;5055136;28;20127;-65
2022/11/26 10:07:22;;;;;;;11.68;6.03;;;6.90;99.90;;;;;;5055331;28;20045;-65
2022/11/26 10:10:06;;;;;;;9.63;5.80;;;6.90;99.90;;;;;;5055271;28;20041;-65
2022/11/26 10:12:56;;;;;;;10.05;6.20;;;6.90;99.90;;;;;;5055254;28;20498;-65
2022/11/26 10:15:54;;;;;;;16.27;7.15;;;6.90;99.90;;;;;;5054857;28;20041;-65
2022/11/26 10:18:40;;;;;;;14.32;7.45;;;7.00;99.90;;;;;;5029054;28;20053;-65
2022/11/26 10:21:31;;;;;;;11.02;6.93;;;7.00;99.90;;;;;;5033434;28;20045;-65
2022/11/26 10:24:02;;;;;;;13.65;8.10;;;7.00;99.90;;;;;;5054778;28;20076;-65
2022/11/26 10:26:28;;;;;;;;;;;7.10;99.90;;;;;;5055226;28;20483;-65
2022/11/26 10:29:15;;;;;;;16.30;7.07;;;7.10;99.90;;;;;;5054596;28;20012;-65
2022/11/26 10:31:44;;;;;;;11.98;7.57;;;7.10;99.90;;;;;;5054899;28;20041;-65
2022/11/26 10:34:38;;;;;;;14.48;8.02;;;7.10;99.90;;;;;;5036728;28;20111;-65
2022/11/26 10:37:04;;;;;;;14.60;8.27;;;7.20;99.90;;;;;;5031771;28;20045;-65
2022/11/26 10:39:30;;;;;;;13.77;7.47;;;7.30;99.90;;;;;;5054713;28;20107;-66
2022/11/26 10:41:55;;;;;;;17.25;7.18;;;7.80;99.90;;;;;;5054730;28;20041;-65
2022/11/26 10:44:38;;;;;;;15.50;8.40;;;7.40;99.90;;;;;;5054522;28;20052;-64
2022/11/26 10:47:25;;;;;;;18.15;7.85;;;7.50;99.90;;;;;;5054612;28;20044;-65
2022/11/26 10:50:25;;;;;;;15.68;7.63;;;7.60;99.90;;;;;;5054512;28;20053;-65
2022/11/26 10:52:51;;;;;;;15.95;8.65;;;7.60;99.90;;;;;;5051653;28;20537;-65
2022/11/26 10:55:29;;;;;;;11.45;7.63;;;8.00;99.90;;;;;;5054382;28;20043;-64
2022/11/26 10:58:02;;;;;;;15.18;8.32;;;7.70;99.90;;;;;;5054345;28;20364;-65
2022/11/26 11:00:53;;;;;;;17.88;9.73;;;7.70;99.90;;;;;;5054095;28;20557;-64
2022/11/26 11:03:24;;;;;;;21.70;8.52;;;7.90;99.90;;;;;;5054312;28;20571;-71
2022/11/26 11:05:49;;;;;;;;;;;7.70;99.90;;;;;;5036487;28;20075;-65
2022/11/26 11:08:30;;;;;;;17.20;9.55;;;7.70;99.90;;;;;;5053838;28;19917;-64
2022/11/26 11:10:58;;;;;;;19.38;8.75;;;7.70;99.90;;;;;;5036077;28;20037;-65
2022/11/26 11:13:42;;;;;;;20.75;10.30;;;7.70;99.90;;;;;;5035838;28;20041;-64
2022/11/26 11:16:09;;;;;;;12.93;8.30;;;7.70;99.90;;;;;;5036141;28;20045;-64
2022/11/26 11:18:35;;;;;;;13.68;8.75;;;7.70;99.90;;;;;;5053936;28;20043;-65
2022/11/26 11:21:02;;;;;;;16.20;7.70;;;7.80;99.90;;;;;;5053862;28;20075;-65
2022/11/26 11:23:33;;;;;;;17.17;9.05;;;7.80;99.90;;;;;;5053823;28;20057;-64
2022/11/26 11:26:03;;;;;;;19.25;8.95;;;7.80;99.90;;;;;;5053847;28;20052;-65
2022/11/26 11:28:32;;;;;;;17.48;9.23;;;7.80;99.90;;;;;;5053557;28;20045;-65
2022/11/26 11:31:12;;;;;;;21.00;9.75;;;7.90;99.90;;;;;;5035631;28;20053;-65
2022/11/26 11:33:38;;;;;;;15.43;8.57;;;8.10;99.90;;;;;;5053428;28;20049;-64
2022/11/26 11:36:03;;;;;;;19.38;9.38;;;7.90;99.90;;;;;;5053618;28;20037;-65
2022/11/26 11:38:33;;;;;;;18.13;9.07;;;7.90;99.90;;;;;;5053252;28;20480;-65
2022/11/26 11:41:03;;;;;;;23.88;10.48;;;7.90;99.90;;;;;;5053453;28;20380;-63
2022/11/26 11:43:35;;;;;;;15.02;8.75;;;7.90;99.90;;;;;;5053475;28;20052;-65
2022/11/26 11:46:12;;;;;;;16.35;8.82;;;8.00;99.90;;;;;;5035484;28;20060;-66
2022/11/26 11:49:11;;;;;;;19.83;8.77;;;8.00;99.90;;;;;;5053459;28;20171;-65
2022/11/26 11:52:00;;;;;;;21.42;9.50;;;8.00;99.90;;;;;;5035179;28;20052;-65
2022/11/26 11:54:44;;;;;;;22.80;10.35;;;8.00;99.90;;;;;;5053286;28;20041;-68
2022/11/26 11:57:32;;;;;;;17.92;9.05;;;8.10;99.90;;;;;;5053152;28;20065;-64
2022/11/26 12:00:23;;;;;;;17.15;8.45;;;8.10;99.90;;;;;;5034821;28;20072;-64
2022/11/26 12:03:16;;;;;;;18.73;8.90;;;8.10;99.90;;;;;;5016057;28;20041;-64
2022/11/26 12:05:57;;;;;;;27.52;8.80;;;8.10;99.90;;;;;;5053036;28;20041;-64
2022/11/26 12:08:45;;;;;;;16.55;9.02;;;8.20;99.90;;;;;;5052923;28;20045;-64
2022/11/26 12:11:40;;;;;;;18.10;9.73;;;8.20;99.90;;;;;;5052904;28;20099;-64
2022/11/26 12:14:31;;;;;;;17.50;8.50;;;8.20;99.90;;;;;;5052748;28;20166;-68
2022/11/26 12:17:04;;;;;;;18.60;8.32;;;8.20;99.90;;;;;;5052699;28;20048;-67
2022/11/26 12:19:38;;;;;;;18.30;8.48;;;8.20;99.90;;;;;;5052959;28;20055;-64
2022/11/26 12:22:21;;;;;;;16.67;8.63;;;8.30;99.90;;;;;;5052489;28;20119;-65
2022/11/26 12:24:55;;;;;;;20.63;8.32;;;8.20;99.90;;;;;;5034062;28;20048;-64
2022/11/26 12:27:43;;;;;;;15.57;7.38;;;8.30;99.90;;;;;;5052518;28;20041;-64
2022/11/26 12:30:19;;;;;;;14.63;8.05;;;8.30;99.90;;;;;;5018262;28;20437;-65
2022/11/26 12:33:12;;;;;;;18.48;9.57;;;8.30;99.90;;;;;;5052672;28;20037;-65
2022/11/26 12:35:44;;;;;;;13.57;7.22;;;8.30;99.90;;;;;;5034535;28;20056;-65
2022/11/26 12:38:26;;;;;;;15.73;7.90;;;8.30;99.90;;;;;;5034469;28;20044;-65
2022/11/26 12:41:00;;;;;;;20.55;7.82;;;8.30;99.90;;;;;;5052217;28;20045;-65
2022/11/26 12:43:44;;;;;;;16.33;7.97;;;8.40;99.90;;;;;;5034592;28;20534;-70
2022/11/26 12:46:18;;;;;;;18.25;9.00;;;8.30;99.90;;;;;;5052165;28;20045;-69
2022/11/26 12:49:02;;;;;;;17.80;8.15;;;8.30;99.90;;;;;;5034511;28;20037;-65
2022/11/26 12:52:02;;;;;;;19.05;8.15;;;8.30;99.90;;;;;;5052393;28;20048;-65
2022/11/26 12:55:09;;;;;;;19.17;7.80;;;8.30;99.90;;;;;;5034505;28;20057;-64
2022/11/26 12:57:43;;;;;;;19.10;9.38;;;8.30;99.90;;;;;;5051630;28;20133;-65
2022/11/26 13:00:22;;;;;;;21.10;8.30;;;8.30;99.90;;;;;;5052108;28;20057;-65
2022/11/26 13:02:51;;;;;;;16.65;8.52;;;8.30;99.90;;;;;;5052318;28;20102;-66
2022/11/26 13:05:42;;;;;;;18.85;7.35;;;8.30;99.90;;;;;;5052037;28;20506;-65
2022/11/26 13:08:27;;;;;;;16.67;7.65;;;8.30;99.90;;;;;;5052045;28;20507;-65
2022/11/26 13:11:02;;;;;;;18.40;8.00;;;8.30;99.90;;;;;;5051909;28;20084;-65